Terminal Aerodrome Forecast
Issued by NWS Bismarck, ND

Home | Current Version | Previous Version | Text Only | Print | Product List | Glossary On
Versions: 1 2 3 4 5 6 7 8 9 10 11 12 13 14
000
FTUS43 KBIS 300500
TAFISN
TAF
KISN 300536Z 3006/3106 VRB05KT P6SM SKC
     FM301500 15014KT P6SM SCT070
     FM302200 16015KT P6SM VCTS BKN060CB
     FM310300 28008KT P6SM BKN100=

USA.gov is the U.S. government's official web portal to all federal, state and local government web resources and services.